GLK weather

Galcaio Airport
Galcaio, Mudug, Somalia

Public forecast

Using degrees Celsius for public forecast. Weather courtesy of forecast.io.

Closest aviation weather report (METAR) to Galcaio Airport

Report is more than 6 hours old.

Closest report is Juba International Airport, 953.8 nm (1,766.4 km) W. Retrieved 2019/10/02 08:00 UTC (17 days ago):

HSSJ 020800Z 36004KT 9999 SCT040 28/17 Q1014

Closest aviation forecast (TAF) to Galcaio Airport

Forecast is more than 12 hours old.

Closest forecast is Gore Airport, 713.3 nm (1,321.1 km) W. Retrieved 2019/04/04 00:20 UTC (7 months ago):

TAF HAGR 042130Z 0500/0606 18005KT 9999 FEW030 FEW060 BECMG 0607/0515 -RA BKN027